createdAt,value
2023-02-23T00:00:32.313Z,74.7
2023-02-23T00:01:49.352Z,75.1
2023-02-23T00:03:06.476Z,75.4
2023-02-23T00:04:23.313Z,75.5
2023-02-23T00:05:40.312Z,75.6
2023-02-23T00:06:57.440Z,75.8
2023-02-23T00:08:14.312Z,75.7
2023-02-23T00:09:31.301Z,75.6
2023-02-23T00:10:48.347Z,75.5
2023-02-23T00:12:05.344Z,75.7
2023-02-23T00:13:22.394Z,76.3
2023-02-23T00:14:39.331Z,76.5
2023-02-23T00:15:56.349Z,76.7
2023-02-23T00:17:13.408Z,76.6
2023-02-23T00:18:30.352Z,76.3
2023-02-23T00:19:47.304Z,76
2023-02-23T00:21:04.378Z,75.8
2023-02-23T00:22:21.356Z,75.6
2023-02-23T00:23:38.337Z,75.2
2023-02-23T00:24:55.398Z,75
2023-02-23T00:26:12.384Z,75.1
2023-02-23T00:27:29.371Z,75.2
2023-02-23T00:28:46.414Z,75.1
2023-02-23T00:30:03.388Z,75
2023-02-23T00:31:20.639Z,74.6
2023-02-23T00:32:37.474Z,74.3
2023-02-23T00:33:54.412Z,74.3
2023-02-23T00:35:11.361Z,73.9
2023-02-23T00:36:28.344Z,73.7
2023-02-23T00:37:45.355Z,73.8
2023-02-23T00:39:02.375Z,74
2023-02-23T00:40:19.346Z,74.4
2023-02-23T00:41:36.397Z,74.4
2023-02-23T00:42:53.356Z,74.5
2023-02-23T00:44:10.405Z,74.7
2023-02-23T00:45:27.402Z,74.6
2023-02-23T00:46:44.389Z,74.4
2023-02-23T00:48:01.375Z,74.2
2023-02-23T00:49:18.384Z,74.3
2023-02-23T00:50:35.401Z,74.1
2023-02-23T00:51:52.420Z,73.8
2023-02-23T00:53:11.439Z,73.9
2023-02-23T00:54:26.416Z,74.1
2023-02-23T00:55:43.411Z,74.2
2023-02-23T00:57:00.405Z,74.2
2023-02-23T00:58:17.405Z,74.5
2023-02-23T00:59:34.420Z,74.6
2023-02-23T01:00:51.387Z,74.7
2023-02-23T01:02:08.462Z,74.7
2023-02-23T01:03:25.421Z,74.6
2023-02-23T01:04:42.374Z,74.4
2023-02-23T01:05:59.394Z,74.6
2023-02-23T01:07:16.408Z,75
2023-02-23T01:08:33.403Z,75.1
2023-02-23T01:09:50.378Z,75.3
2023-02-23T01:11:07.388Z,75
2023-02-23T01:12:24.435Z,74.9
2023-02-23T01:13:41.768Z,75.1
2023-02-23T01:14:58.438Z,75.3
2023-02-23T01:16:15.390Z,75.7
2023-02-23T01:17:32.386Z,76
2023-02-23T01:18:49.459Z,76.1
2023-02-23T01:20:06.407Z,76.2
2023-02-23T01:21:23.441Z,76.3
2023-02-23T01:22:40.411Z,76.5
2023-02-23T01:23:57.463Z,76.8
2023-02-23T01:25:14.415Z,77.1
2023-02-23T01:26:31.411Z,77.3
2023-02-23T01:27:48.424Z,77.4
2023-02-23T01:29:05.470Z,77.1
2023-02-23T01:30:22.439Z,76.9
2023-02-23T01:31:39.539Z,76.8
2023-02-23T01:32:56.419Z,76.6
2023-02-23T01:34:13.483Z,76.4
2023-02-23T01:35:30.414Z,76.3
2023-02-23T01:36:47.430Z,76.2
2023-02-23T01:38:04.435Z,76.3
2023-02-23T01:39:21.466Z,76.4
2023-02-23T01:40:38.427Z,76.3
2023-02-23T01:41:55.424Z,76.4
2023-02-23T01:43:12.441Z,76.6
2023-02-23T01:44:29.482Z,76.5
2023-02-23T01:45:46.458Z,76.2
2023-02-23T01:47:03.429Z,76
2023-02-23T01:48:20.453Z,75.9
2023-02-23T01:49:37.467Z,75.8
2023-02-23T01:50:54.441Z,75.9
2023-02-23T01:52:11.464Z,75.6
2023-02-23T01:53:28.466Z,75.6
2023-02-23T01:54:45.440Z,75.6
2023-02-23T01:56:02.444Z,75.7
2023-02-23T01:57:19.443Z,75.5
2023-02-23T01:58:36.499Z,75.3
2023-02-23T01:59:53.417Z,75.5
2023-02-23T02:01:10.538Z,75.8
2023-02-23T02:02:27.437Z,76.2
2023-02-23T02:03:44.465Z,76.2
2023-02-23T02:05:01.582Z,76.1
2023-02-23T02:06:18.455Z,76.1
2023-02-23T02:07:35.579Z,76.2
2023-02-23T02:08:52.463Z,76.1
2023-02-23T02:10:09.469Z,76
2023-02-23T02:11:26.470Z,75.8
2023-02-23T02:12:43.501Z,75.8
2023-02-23T02:14:00.506Z,76
2023-02-23T02:15:17.723Z,75.9
2023-02-23T02:16:34.495Z,75.8
2023-02-23T02:17:51.477Z,75.6
2023-02-23T02:19:08.504Z,75.5
2023-02-23T02:20:25.465Z,75.4
2023-02-23T02:21:42.472Z,75.6
2023-02-23T02:22:59.496Z,75.6
2023-02-23T02:24:16.496Z,75.8
2023-02-23T02:25:33.488Z,76.2
2023-02-23T02:26:50.497Z,76.8
2023-02-23T02:28:07.513Z,77.1
2023-02-23T02:29:24.493Z,77.4
2023-02-23T02:30:41.547Z,77.8
2023-02-23T02:31:58.767Z,78
2023-02-23T02:33:15.609Z,78.1
2023-02-23T02:34:32.601Z,77.9
2023-02-23T02:35:49.519Z,77.7
2023-02-23T02:37:06.498Z,77.7
2023-02-23T02:38:23.523Z,77.7
2023-02-23T02:39:40.565Z,77.6
2023-02-23T02:40:57.487Z,77.8
2023-02-23T02:42:14.487Z,78.2
2023-02-23T02:43:31.506Z,78.3
2023-02-23T02:44:48.600Z,77.9
2023-02-23T02:46:05.554Z,77.5
2023-02-23T02:47:22.684Z,77.3
2023-02-23T02:48:39.519Z,77.2
2023-02-23T02:49:56.524Z,77.1
2023-02-23T02:51:13.527Z,77.1
2023-02-23T02:52:30.542Z,77.1
2023-02-23T02:53:47.540Z,77.1
2023-02-23T02:55:04.546Z,77.1
2023-02-23T02:56:21.669Z,77
2023-02-23T02:57:38.522Z,77.1
2023-02-23T02:58:55.538Z,77.1
2023-02-23T03:00:12.565Z,77.3
2023-02-23T03:01:30.155Z,77.4
2023-02-23T03:02:46.568Z,77.7
2023-02-23T03:04:03.564Z,77.9
2023-02-23T03:05:20.604Z,77.8
2023-02-23T03:06:37.592Z,77.6
2023-02-23T03:07:54.543Z,77.5
2023-02-23T03:09:11.546Z,77.4
2023-02-23T03:10:28.545Z,77.4
2023-02-23T03:11:45.603Z,77.3
2023-02-23T03:13:02.566Z,77.4
2023-02-23T03:14:19.568Z,77.6
2023-02-23T03:15:36.562Z,77.7
2023-02-23T03:16:53.566Z,77.7
2023-02-23T03:18:10.644Z,77.7
2023-02-23T03:19:27.537Z,77.6
2023-02-23T03:20:44.530Z,77.6
2023-02-23T03:22:01.579Z,77.7
2023-02-23T03:23:18.596Z,77.8
2023-02-23T03:24:35.595Z,77.8
2023-02-23T03:25:52.565Z,77.9
2023-02-23T03:27:09.558Z,77.9
2023-02-23T03:28:26.646Z,77.8
2023-02-23T03:29:43.568Z,77.6
2023-02-23T03:31:00.690Z,77.8
2023-02-23T03:32:17.670Z,78.1
2023-02-23T03:33:34.580Z,78.5
2023-02-23T03:34:51.587Z,78.9
2023-02-23T03:36:08.614Z,79.3
2023-02-23T03:37:25.553Z,79.7
2023-02-23T03:38:42.575Z,79.8
2023-02-23T03:39:59.628Z,80.2
2023-02-23T03:41:17.046Z,80.3
2023-02-23T03:42:33.567Z,80.2
2023-02-23T03:43:50.565Z,79.8
2023-02-23T03:45:07.600Z,79.5
2023-02-23T03:46:24.602Z,79.2
2023-02-23T03:47:41.639Z,79.2
2023-02-23T03:48:58.620Z,78.9
2023-02-23T03:50:15.576Z,78.8
2023-02-23T03:51:32.609Z,78.7
2023-02-23T03:52:49.608Z,78.4
2023-02-23T03:54:06.620Z,78.1
2023-02-23T03:55:23.630Z,78.1
2023-02-23T03:56:40.623Z,78
2023-02-23T03:57:57.646Z,77.8
2023-02-23T03:59:14.658Z,77.6
2023-02-23T04:00:31.632Z,77.4
2023-02-23T04:01:48.668Z,77.6
2023-02-23T04:03:05.599Z,77.7
2023-02-23T04:04:22.633Z,77.9
2023-02-23T04:05:39.597Z,77.9
2023-02-23T04:06:56.672Z,77.9
2023-02-23T04:08:13.642Z,78.1
2023-02-23T04:09:30.607Z,78
2023-02-23T04:10:47.662Z,78
2023-02-23T04:12:04.677Z,78
2023-02-23T04:13:21.620Z,78
2023-02-23T04:14:38.615Z,77.9
2023-02-23T04:15:55.616Z,77.8
2023-02-23T04:17:12.644Z,77.8
2023-02-23T04:18:30.309Z,77.9
2023-02-23T04:19:47.642Z,78.3
2023-02-23T04:21:04.665Z,78.9
2023-02-23T04:22:21.664Z,79.2
2023-02-23T04:23:38.713Z,79
2023-02-23T04:24:55.620Z,78.9
2023-02-23T04:26:12.642Z,78.7
2023-02-23T04:27:29.638Z,78.5
2023-02-23T04:28:46.684Z,78.4
2023-02-23T04:30:03.638Z,78.5
2023-02-23T04:31:22.867Z,78.6
2023-02-23T04:32:37.748Z,78.9
2023-02-23T04:33:54.703Z,79.3
2023-02-23T04:35:11.707Z,79.7
2023-02-23T04:36:28.635Z,80
2023-02-23T04:37:45.665Z,80.3
2023-02-23T04:39:02.733Z,80.6
2023-02-23T04:40:19.652Z,80.8
2023-02-23T04:41:36.651Z,80.9
2023-02-23T04:42:53.650Z,81
2023-02-23T04:44:10.723Z,80.9
2023-02-23T04:45:27.736Z,80.5
2023-02-23T04:46:44.695Z,80.3
2023-02-23T04:48:01.694Z,80.2
2023-02-23T04:49:18.718Z,80.1
2023-02-23T04:50:35.700Z,80
2023-02-23T04:51:52.685Z,80
2023-02-23T04:53:09.702Z,79.7
2023-02-23T04:54:26.695Z,79.7
2023-02-23T04:55:43.684Z,79.5
2023-02-23T04:57:00.701Z,79.6
2023-02-23T04:58:17.730Z,79.7
2023-02-23T04:59:34.677Z,79.9
2023-02-23T05:00:51.700Z,80.5
2023-02-23T05:02:08.687Z,80.8
2023-02-23T05:03:25.731Z,81.1
2023-02-23T05:04:42.763Z,81.2
2023-02-23T05:05:59.731Z,81.3
2023-02-23T05:07:16.684Z,81.2
2023-02-23T05:08:33.707Z,80.7
2023-02-23T05:09:50.680Z,80.4
2023-02-23T05:11:07.711Z,80.5
2023-02-23T05:12:24.688Z,80.2
2023-02-23T05:13:41.729Z,80
2023-02-23T05:14:58.802Z,79.8
2023-02-23T05:16:15.724Z,79.7
2023-02-23T05:17:32.680Z,79.9
2023-02-23T05:18:49.710Z,80.3
2023-02-23T05:20:06.727Z,80.7
2023-02-23T05:21:23.736Z,80.9
2023-02-23T05:22:40.706Z,80.9
2023-02-23T05:23:57.736Z,80.8
2023-02-23T05:25:14.720Z,80.8
2023-02-23T05:26:31.713Z,80.9
2023-02-23T05:27:48.716Z,80.8
2023-02-23T05:29:05.753Z,80.5
2023-02-23T05:30:22.764Z,80.1
2023-02-23T05:31:39.838Z,80
2023-02-23T05:32:56.767Z,79.9
2023-02-23T05:34:13.710Z,80.1
2023-02-23T05:35:30.738Z,80.3
2023-02-23T05:36:47.782Z,80.8
2023-02-23T05:38:04.730Z,80.9
2023-02-23T05:39:21.771Z,80.7
2023-02-23T05:40:38.735Z,80.9
2023-02-23T05:41:55.772Z,81.2
2023-02-23T05:43:12.729Z,81.5
2023-02-23T05:44:29.777Z,81.8
2023-02-23T05:45:46.776Z,81.9
2023-02-23T05:47:03.738Z,81.7
2023-02-23T05:48:20.753Z,81.7
2023-02-23T05:49:37.808Z,81.9
2023-02-23T05:50:54.745Z,81.8
2023-02-23T05:52:11.774Z,81.6
2023-02-23T05:53:28.743Z,81.1
2023-02-23T05:54:45.776Z,80.6
2023-02-23T05:56:02.731Z,80
2023-02-23T05:57:19.755Z,79.6
2023-02-23T05:58:36.787Z,79.2
2023-02-23T05:59:53.745Z,79.2
2023-02-23T06:01:10.752Z,79.2
2023-02-23T06:02:27.802Z,79.4
2023-02-23T06:03:44.794Z,79.4
2023-02-23T06:05:01.817Z,79.3
2023-02-23T06:06:18.844Z,79.3
2023-02-23T06:07:35.772Z,79.7
2023-02-23T06:08:52.819Z,79.7
2023-02-23T06:10:09.772Z,79.5
2023-02-23T06:11:26.770Z,79.3
2023-02-23T06:12:43.785Z,79.3
2023-02-23T06:14:00.827Z,79.4
2023-02-23T06:15:17.816Z,79.3
2023-02-23T06:16:34.951Z,79.4
2023-02-23T06:17:51.761Z,79.4
2023-02-23T06:19:08.829Z,79.6
2023-02-23T06:20:25.781Z,79.8
2023-02-23T06:21:42.792Z,79.9
2023-02-23T06:22:59.908Z,79.9
2023-02-23T06:24:16.816Z,79.8
2023-02-23T06:25:33.775Z,79.7
2023-02-23T06:26:50.794Z,79.5
2023-02-23T06:28:07.816Z,79.3
2023-02-23T06:29:24.831Z,79.2
2023-02-23T06:30:44.621Z,79.1
2023-02-23T06:32:01.911Z,78.9
2023-02-23T06:33:18.809Z,78.8
2023-02-23T06:34:35.817Z,78.7
2023-02-23T06:35:52.805Z,78.7
2023-02-23T06:37:09.823Z,78.8
2023-02-23T06:38:26.831Z,79.1
2023-02-23T06:39:43.836Z,79.1
2023-02-23T06:41:00.816Z,79
2023-02-23T06:42:17.832Z,78.7
2023-02-23T06:43:34.824Z,78.4
2023-02-23T06:44:51.860Z,78.2
2023-02-23T06:46:08.905Z,77.8
2023-02-23T06:47:25.833Z,77.4
2023-02-23T06:48:42.828Z,77.3
2023-02-23T06:49:59.870Z,77.3
2023-02-23T06:51:17.256Z,77.2
2023-02-23T06:52:33.860Z,77.3
2023-02-23T06:53:50.896Z,77.6
2023-02-23T06:55:07.842Z,77.7
2023-02-23T06:56:24.846Z,78
2023-02-23T06:57:41.817Z,78.4
2023-02-23T06:58:58.829Z,78.5
2023-02-23T07:00:15.860Z,78.2
2023-02-23T07:01:32.907Z,77.8
2023-02-23T07:02:49.835Z,77.7
2023-02-23T07:04:07.003Z,77.7
2023-02-23T07:05:23.861Z,77.2
2023-02-23T07:06:40.834Z,76.5
2023-02-23T07:07:57.842Z,76.3
2023-02-23T07:09:14.866Z,75.9
2023-02-23T07:10:31.863Z,75.4
2023-02-23T07:11:48.854Z,75.2
2023-02-23T07:13:05.847Z,74.8
2023-02-23T07:14:26.774Z,74.2
2023-02-23T07:15:39.913Z,73.9
2023-02-23T07:16:56.834Z,73.7
2023-02-23T07:18:13.868Z,73.3
2023-02-23T07:19:30.856Z,73.1
2023-02-23T07:20:48.164Z,72.5
2023-02-23T07:22:04.865Z,72.4
2023-02-23T07:23:21.899Z,72.3
2023-02-23T07:24:38.886Z,72.2
2023-02-23T07:25:55.890Z,72.2
2023-02-23T07:27:12.854Z,72.4
2023-02-23T07:28:29.861Z,72.5
2023-02-23T07:29:46.888Z,72.8
2023-02-23T07:31:03.942Z,73
2023-02-23T07:32:20.992Z,73.1
2023-02-23T07:33:37.837Z,73
2023-02-23T07:34:54.878Z,73
2023-02-23T07:36:12.214Z,72.8
2023-02-23T07:37:28.887Z,72.3
2023-02-23T07:38:45.970Z,72.1
2023-02-23T07:40:02.951Z,72
2023-02-23T07:41:20.166Z,71.8
2023-02-23T07:42:36.868Z,72.1
2023-02-23T07:43:53.874Z,71.9
2023-02-23T07:45:10.941Z,71.9
2023-02-23T07:46:27.895Z,71.7
2023-02-23T07:47:44.891Z,71.5
2023-02-23T07:49:01.904Z,71.4
2023-02-23T07:50:18.956Z,71.1
2023-02-23T07:51:35.878Z,71.2
2023-02-23T07:52:52.885Z,71.5
2023-02-23T07:54:09.924Z,70.9
2023-02-23T07:55:26.985Z,70.5
2023-02-23T07:56:44.066Z,70
2023-02-23T07:58:00.939Z,69.9
2023-02-23T07:59:17.943Z,69.8
2023-02-23T08:00:34.951Z,69.8
2023-02-23T08:01:51.998Z,69.5
2023-02-23T08:03:08.901Z,69
2023-02-23T08:04:25.965Z,68.8
2023-02-23T08:05:42.917Z,68.6
2023-02-23T08:06:59.943Z,68.6
2023-02-23T08:08:16.888Z,68.1
2023-02-23T08:09:33.921Z,67.5
2023-02-23T08:10:50.982Z,66.7
2023-02-23T08:12:07.960Z,65.7
2023-02-23T08:13:24.946Z,65.3
2023-02-23T08:14:41.960Z,65.4
2023-02-23T08:15:58.935Z,64.9
2023-02-23T08:17:19.138Z,65.1
2023-02-23T08:18:35.993Z,65.5
2023-02-23T08:19:52.965Z,65.6
2023-02-23T08:21:09.943Z,66.1
2023-02-23T08:22:26.943Z,66.8
2023-02-23T08:23:43.956Z,67.4
2023-02-23T08:25:00.993Z,66.8
2023-02-23T08:26:17.982Z,65.3
2023-02-23T08:27:34.937Z,64.3
2023-02-23T08:28:51.948Z,64
2023-02-23T08:30:08.976Z,63.6
2023-02-23T08:31:26.063Z,62.7
2023-02-23T08:32:42.973Z,62
2023-02-23T08:33:59.959Z,61.6
2023-02-23T08:35:16.951Z,62.2
2023-02-23T08:36:33.979Z,62.7
2023-02-23T08:37:50.968Z,63.1
2023-02-23T08:39:08.004Z,63.5
2023-02-23T08:40:25.027Z,62.4
2023-02-23T08:41:41.997Z,61.8
2023-02-23T08:42:59.024Z,62
2023-02-23T08:44:15.948Z,62.5
2023-02-23T08:45:32.975Z,62.3
2023-02-23T08:46:49.980Z,62.3
2023-02-23T08:48:06.979Z,62
2023-02-23T08:49:23.951Z,61.4
2023-02-23T08:50:40.964Z,60.6
2023-02-23T08:51:57.963Z,59.8
2023-02-23T08:53:14.973Z,59.1
2023-02-23T08:54:31.965Z,59.1
2023-02-23T08:55:48.976Z,59.4
2023-02-23T08:57:06.041Z,59.8
2023-02-23T08:58:23.029Z,60.5
2023-02-23T08:59:40.021Z,60.7
2023-02-23T09:00:56.977Z,60.6
2023-02-23T09:02:14.051Z,61.1
2023-02-23T09:03:31.028Z,61.8
2023-02-23T09:04:48.017Z,62.6
2023-02-23T09:06:05.005Z,63.7
2023-02-23T09:07:21.985Z,63.8
2023-02-23T09:08:38.975Z,63
2023-02-23T09:09:56.045Z,62.3
2023-02-23T09:11:13.047Z,61.7
2023-02-23T09:12:30.028Z,61.2
2023-02-23T09:13:47.013Z,60.5
2023-02-23T09:15:04.029Z,60.7
2023-02-23T09:16:21.122Z,60.2
2023-02-23T09:17:38.034Z,59.8
2023-02-23T09:18:55.042Z,59.2
2023-02-23T09:20:12.031Z,58.2
2023-02-23T09:21:29.023Z,58.4
2023-02-23T09:22:46.010Z,58
2023-02-23T09:24:03.021Z,58.2
2023-02-23T09:25:19.998Z,57.9
2023-02-23T09:26:37.094Z,57.3
2023-02-23T09:27:54.041Z,57.2
2023-02-23T09:29:11.019Z,56.2
2023-02-23T09:30:28.099Z,56.1
2023-02-23T09:31:45.170Z,55.7
2023-02-23T09:33:02.036Z,56.4
2023-02-23T09:34:19.033Z,57.1
2023-02-23T09:35:36.058Z,57.1
2023-02-23T09:36:53.046Z,57.2
2023-02-23T09:38:10.061Z,57.8
2023-02-23T09:39:37.535Z,58.2
2023-02-23T09:40:44.130Z,58.9
2023-02-23T09:42:01.021Z,59
2023-02-23T09:43:18.108Z,59.1
2023-02-23T09:44:35.028Z,57.9
2023-02-23T09:45:52.188Z,57.1
2023-02-23T09:47:10.854Z,56.7
2023-02-23T09:48:26.042Z,54.9
2023-02-23T09:49:43.177Z,54.2
2023-02-23T09:51:00.111Z,53.7
2023-02-23T09:52:17.191Z,53.3
2023-02-23T09:53:34.281Z,53.3
2023-02-23T09:54:51.042Z,52.9
2023-02-23T09:56:08.064Z,52.5
2023-02-23T09:57:25.038Z,51.9
2023-02-23T09:58:42.221Z,52.8
2023-02-23T09:59:59.102Z,54.5
2023-02-23T10:01:16.260Z,55.8
2023-02-23T10:02:33.105Z,56.2
2023-02-23T10:03:50.105Z,55.8
2023-02-23T10:05:07.159Z,55.5
2023-02-23T10:06:24.077Z,55
2023-02-23T10:07:41.088Z,54.4
2023-02-23T10:08:58.096Z,53.7
2023-02-23T10:10:15.118Z,54.2
2023-02-23T10:11:32.091Z,54.4
2023-02-23T10:12:49.085Z,54.3
2023-02-23T10:14:06.208Z,54.2
2023-02-23T10:15:23.103Z,53.6
2023-02-23T10:16:40.726Z,53.5
2023-02-23T10:17:57.118Z,53.3
2023-02-23T10:19:14.149Z,53
2023-02-23T10:20:31.100Z,52.9
2023-02-23T10:21:48.076Z,52.9
2023-02-23T10:23:05.102Z,52.7
2023-02-23T10:24:22.130Z,52.2
2023-02-23T10:25:39.097Z,53
2023-02-23T10:26:56.093Z,54
2023-02-23T10:28:13.167Z,54.9
2023-02-23T10:29:30.120Z,55.2
2023-02-23T10:30:47.206Z,55.4
2023-02-23T10:32:04.219Z,55.6
2023-02-23T10:33:21.144Z,56
2023-02-23T10:34:38.110Z,55.9
2023-02-23T10:36:07.307Z,55.4
2023-02-23T10:37:12.117Z,54.8
2023-02-23T10:38:29.177Z,53.7
2023-02-23T10:39:46.101Z,53.4
2023-02-23T10:41:03.171Z,53.1
2023-02-23T10:42:20.150Z,52.3
2023-02-23T10:43:37.120Z,51.3
2023-02-23T10:44:54.180Z,51.2
2023-02-23T10:46:11.194Z,50.8
2023-02-23T10:47:28.607Z,50.7
2023-02-23T10:48:45.140Z,51.3
2023-02-23T10:50:02.193Z,51.8
2023-02-23T10:51:19.530Z,52.1
2023-02-23T10:52:41.495Z,51.9
2023-02-23T10:53:53.121Z,52.5
2023-02-23T10:55:10.174Z,52.5
2023-02-23T10:56:27.391Z,51.6
2023-02-23T10:57:44.162Z,51.1
2023-02-23T10:59:01.135Z,51.7
2023-02-23T11:00:18.290Z,52.1
2023-02-23T11:01:35.207Z,52.8
2023-02-23T11:02:52.226Z,52.8
2023-02-23T11:04:09.154Z,53.5
2023-02-23T11:05:26.213Z,53.8
2023-02-23T11:06:43.192Z,53.3
2023-02-23T11:08:00.154Z,52.2
2023-02-23T11:09:17.297Z,51.7
2023-02-23T11:10:34.201Z,50.8
2023-02-23T11:11:51.142Z,50.6
2023-02-23T11:13:08.180Z,51.7
2023-02-23T11:14:25.363Z,53.4
2023-02-23T11:15:50.174Z,54.1
2023-02-23T11:16:59.404Z,54.4
2023-02-23T11:18:16.189Z,54.4
2023-02-23T11:19:33.172Z,54.6
2023-02-23T11:20:50.207Z,54.6
2023-02-23T11:22:07.201Z,54.5
2023-02-23T11:23:24.201Z,55.2
2023-02-23T11:24:41.196Z,56.3
2023-02-23T11:25:58.170Z,56.7
2023-02-23T11:27:15.470Z,56.1
2023-02-23T11:28:32.191Z,55.9
2023-02-23T11:29:49.184Z,55.2
2023-02-23T11:31:06.813Z,55.1
2023-02-23T11:32:23.582Z,54.6
2023-02-23T11:33:40.193Z,54.1
2023-02-23T11:34:57.275Z,54.2
2023-02-23T11:36:14.737Z,54.6
2023-02-23T11:37:31.256Z,54.9
2023-02-23T11:38:48.194Z,55
2023-02-23T11:40:05.209Z,55
2023-02-23T11:41:22.363Z,55.6
2023-02-23T11:42:39.229Z,56.3
2023-02-23T11:43:56.195Z,56.8
2023-02-23T11:45:13.288Z,56.8
2023-02-23T11:46:31.925Z,57.3
2023-02-23T11:47:49.599Z,58.1
2023-02-23T11:49:05.209Z,57.7
2023-02-23T11:50:22.892Z,57.4
2023-02-23T11:51:40.210Z,57.4
2023-02-23T11:52:57.308Z,57.3
2023-02-23T11:54:14.400Z,57
2023-02-23T11:55:31.393Z,57
2023-02-23T11:56:48.258Z,56.7
2023-02-23T11:58:05.230Z,56.2
2023-02-23T11:59:22.248Z,56.5
2023-02-23T12:00:39.304Z,57.1
2023-02-23T12:01:56.385Z,57.6
2023-02-23T12:03:13.260Z,57.5
2023-02-23T12:04:30.340Z,57.7
2023-02-23T12:05:47.310Z,58.5
2023-02-23T12:07:04.230Z,59.4
2023-02-23T12:08:21.272Z,60
2023-02-23T12:09:38.265Z,60.2
2023-02-23T12:10:55.329Z,59.8
2023-02-23T12:12:12.263Z,59.6
2023-02-23T12:13:29.270Z,58.9
2023-02-23T12:14:46.244Z,58.5
2023-02-23T12:16:03.325Z,58.7
2023-02-23T12:17:20.299Z,58.9
2023-02-23T12:18:37.283Z,59.2
2023-02-23T12:19:54.264Z,59.6
2023-02-23T12:21:11.298Z,59.6
2023-02-23T12:22:28.327Z,59.7
2023-02-23T12:23:46.953Z,59.3
2023-02-23T12:25:02.288Z,59
2023-02-23T12:26:19.622Z,58.6
2023-02-23T12:27:36.303Z,58
2023-02-23T12:28:53.307Z,58.3
2023-02-23T12:30:10.279Z,58.3
2023-02-23T12:31:27.350Z,57.8
2023-02-23T12:32:44.293Z,57.8
2023-02-23T12:34:01.435Z,58.3
2023-02-23T12:35:18.294Z,58.4
2023-02-23T12:36:35.328Z,58.1
2023-02-23T12:37:52.294Z,58.4
2023-02-23T12:39:09.590Z,58.7
2023-02-23T12:40:26.286Z,59
2023-02-23T12:41:43.277Z,59.7
2023-02-23T12:43:00.295Z,60
2023-02-23T12:44:17.404Z,60.4
2023-02-23T12:45:34.334Z,59.7
2023-02-23T12:46:51.343Z,58.5
2023-02-23T12:48:08.337Z,58.1
2023-02-23T12:49:25.372Z,58.6
2023-02-23T12:50:42.320Z,58.7
2023-02-23T12:51:59.401Z,58.9
2023-02-23T12:53:16.341Z,58.3
2023-02-23T12:54:33.354Z,57.9
2023-02-23T12:55:50.363Z,58.2
2023-02-23T12:57:07.307Z,58.5
2023-02-23T12:58:24.311Z,58.6
2023-02-23T12:59:41.358Z,58.7
2023-02-23T13:00:58.419Z,58.6
2023-02-23T13:02:15.364Z,58.1
2023-02-23T13:03:32.820Z,58.5
2023-02-23T13:04:49.484Z,58.6
2023-02-23T13:06:06.322Z,59
2023-02-23T13:07:23.355Z,59
2023-02-23T13:08:40.345Z,58.9
2023-02-23T13:09:57.364Z,59.3
2023-02-23T13:11:14.374Z,59.6
2023-02-23T13:12:31.407Z,59.8
2023-02-23T13:13:48.419Z,59.7
2023-02-23T13:15:05.360Z,59.9
2023-02-23T13:16:22.434Z,59.7
2023-02-23T13:17:39.351Z,59.3
2023-02-23T13:18:56.385Z,59.1
2023-02-23T13:20:13.338Z,58.7
2023-02-23T13:21:30.386Z,58.9
2023-02-23T13:22:47.332Z,58.7
2023-02-23T13:24:04.369Z,58.4
2023-02-23T13:25:21.399Z,58.5
2023-02-23T13:26:38.500Z,58.2
2023-02-23T13:27:55.410Z,57.7
2023-02-23T13:29:12.366Z,57.6
2023-02-23T13:30:29.449Z,57.7
2023-02-23T13:31:46.595Z,57.5
2023-02-23T13:33:03.432Z,57.5
2023-02-23T13:34:20.389Z,57.9
2023-02-23T13:35:37.348Z,58.1
2023-02-23T13:36:54.480Z,57.7
2023-02-23T13:38:11.433Z,57.3
2023-02-23T13:39:28.507Z,57.4
2023-02-23T13:40:45.530Z,57.8
2023-02-23T13:42:02.556Z,57.6
2023-02-23T13:43:19.374Z,57.1
2023-02-23T13:44:36.411Z,56.8
2023-02-23T13:45:53.419Z,57
2023-02-23T13:47:10.518Z,57.1
2023-02-23T13:48:27.399Z,57.8
2023-02-23T13:49:44.698Z,57.7
2023-02-23T13:51:01.446Z,57.2
2023-02-23T13:52:18.430Z,57
2023-02-23T13:53:35.451Z,57.2
2023-02-23T13:54:52.394Z,57.1
2023-02-23T13:56:09.482Z,57.2
2023-02-23T13:57:26.396Z,56.6
2023-02-23T13:58:43.388Z,56.6
2023-02-23T14:00:00.485Z,56.7
2023-02-23T14:01:17.711Z,56.1
2023-02-23T14:02:34.594Z,56.3
2023-02-23T14:03:51.396Z,56.2
2023-02-23T14:05:08.537Z,55.9
2023-02-23T14:06:25.393Z,55.8
2023-02-23T14:07:42.449Z,56.2
2023-02-23T14:08:59.405Z,56.8
2023-02-23T14:10:16.413Z,56.5
2023-02-23T14:11:33.466Z,56.1
2023-02-23T14:12:50.433Z,55.8
2023-02-23T14:14:07.438Z,55.2
2023-02-23T14:15:24.427Z,54.9
2023-02-23T14:16:41.491Z,55.5
2023-02-23T14:17:58.462Z,56.4
2023-02-23T14:19:15.444Z,56.4
2023-02-23T14:20:32.508Z,55.8
2023-02-23T14:21:49.426Z,56
2023-02-23T14:23:06.460Z,56.5
2023-02-23T14:24:23.453Z,56.7
2023-02-23T14:25:40.427Z,56.8
2023-02-23T14:26:57.427Z,56.8
2023-02-23T14:28:14.459Z,56.8
2023-02-23T14:29:31.494Z,57
2023-02-23T14:30:48.535Z,57.1
2023-02-23T14:32:05.554Z,57.1
2023-02-23T14:33:22.441Z,57.1
2023-02-23T14:34:39.547Z,57
2023-02-23T14:35:56.494Z,57
2023-02-23T14:37:13.509Z,57.1
2023-02-23T14:38:42.185Z,57
2023-02-23T14:39:47.470Z,56.8
2023-02-23T14:41:04.560Z,56.7
2023-02-23T14:42:21.457Z,57.1
2023-02-23T14:43:38.474Z,57.8
2023-02-23T14:44:55.518Z,58.4
2023-02-23T14:46:12.584Z,58.9
2023-02-23T14:47:29.458Z,59
2023-02-23T14:48:46.473Z,59
2023-02-23T14:50:03.821Z,58.9
2023-02-23T14:51:20.490Z,59.2
2023-02-23T14:52:37.480Z,59.5
2023-02-23T14:53:54.468Z,59.9
2023-02-23T14:55:11.513Z,60.5
2023-02-23T14:56:42.323Z,60.6
2023-02-23T14:57:45.488Z,60
2023-02-23T14:59:02.506Z,60.1
2023-02-23T15:00:19.502Z,60.2
2023-02-23T15:01:36.568Z,60.4
2023-02-23T15:02:54.366Z,60.2
2023-02-23T15:04:10.468Z,60.1
2023-02-23T15:05:27.584Z,59.9
2023-02-23T15:06:44.545Z,60.1
2023-02-23T15:08:01.524Z,60.1
2023-02-23T15:09:18.545Z,60.5
2023-02-23T15:10:35.549Z,61.2
2023-02-23T15:11:52.508Z,61.5
2023-02-23T15:13:09.492Z,61.8
2023-02-23T15:14:28.368Z,62.2
2023-02-23T15:15:43.530Z,62.4
2023-02-23T15:17:00.495Z,62.9
2023-02-23T15:18:17.511Z,63.1
2023-02-23T15:19:34.564Z,63.3
2023-02-23T15:20:51.537Z,63.2
2023-02-23T15:22:08.557Z,63.2
2023-02-23T15:23:25.588Z,63.1
2023-02-23T15:24:42.606Z,63
2023-02-23T15:26:00.480Z,63.1
2023-02-23T15:27:17.788Z,63.2
2023-02-23T15:28:34.567Z,63.3
2023-02-23T15:29:51.581Z,63.3
2023-02-23T15:31:08.629Z,63.1
2023-02-23T15:32:25.720Z,63.3
2023-02-23T15:33:42.519Z,63.4
2023-02-23T15:34:59.511Z,63.5
2023-02-23T15:36:16.560Z,63.6
2023-02-23T15:37:33.562Z,63.4
2023-02-23T15:38:50.539Z,63.4
2023-02-23T15:40:09.007Z,63.5
2023-02-23T15:41:24.572Z,63.7
2023-02-23T15:42:41.539Z,63.7
2023-02-23T15:43:58.580Z,63.9
2023-02-23T15:45:15.553Z,63.9
2023-02-23T15:46:32.553Z,63.9
2023-02-23T15:47:49.524Z,64
2023-02-23T15:49:06.742Z,64.1
2023-02-23T15:50:34.817Z,63.9
2023-02-23T15:51:40.630Z,63.8
2023-02-23T15:52:57.591Z,63.5
2023-02-23T15:54:14.602Z,63.3
2023-02-23T15:55:31.601Z,63
2023-02-23T15:56:48.677Z,62.7
2023-02-23T15:58:05.652Z,62.4
2023-02-23T15:59:22.591Z,62.1
2023-02-23T16:00:39.608Z,62.1
2023-02-23T16:01:56.858Z,62.1
2023-02-23T16:03:13.704Z,62.1
2023-02-23T16:04:30.611Z,62.3
2023-02-23T16:05:47.574Z,62.6
2023-02-23T16:07:04.652Z,63
2023-02-23T16:08:21.674Z,63.4
2023-02-23T16:09:38.677Z,63.7
2023-02-23T16:10:55.597Z,63.9
2023-02-23T16:12:12.625Z,64.1
2023-02-23T16:13:29.575Z,64.3
2023-02-23T16:14:46.587Z,64.5
2023-02-23T16:16:03.822Z,64.7
2023-02-23T16:17:20.688Z,64.7
2023-02-23T16:18:37.602Z,64.8
2023-02-23T16:19:54.612Z,64.7
2023-02-23T16:21:11.618Z,64.6
2023-02-23T16:22:28.602Z,64.5
2023-02-23T16:23:45.661Z,64.4
2023-02-23T16:25:02.640Z,64.2
2023-02-23T16:26:19.938Z,64.2
2023-02-23T16:27:36.635Z,64.2
2023-02-23T16:28:53.648Z,64.2
2023-02-23T16:30:10.926Z,64.2
2023-02-23T16:31:27.700Z,64.1
2023-02-23T16:32:44.810Z,64.3
2023-02-23T16:34:01.610Z,64.4
2023-02-23T16:35:18.657Z,64.4
2023-02-23T16:36:35.616Z,64.3
2023-02-23T16:37:52.647Z,64.1
2023-02-23T16:39:09.878Z,64.2
2023-02-23T16:40:26.709Z,64.3
2023-02-23T16:41:43.674Z,64.2
2023-02-23T16:43:00.674Z,64
2023-02-23T16:44:17.654Z,63.9
2023-02-23T16:45:34.723Z,63.9
2023-02-23T16:46:51.645Z,64
2023-02-23T16:48:08.653Z,64.1
2023-02-23T16:49:25.635Z,64.2
2023-02-23T16:50:42.684Z,64.5
2023-02-23T16:51:59.721Z,64.8
2023-02-23T16:53:16.671Z,65.1
2023-02-23T16:54:33.673Z,65.1
2023-02-23T16:55:50.670Z,65
2023-02-23T16:57:07.681Z,65
2023-02-23T16:58:24.737Z,65
2023-02-23T16:59:41.683Z,65.1
2023-02-23T17:00:58.639Z,65.1
2023-02-23T17:02:15.688Z,64.9
2023-02-23T17:03:34.300Z,64.9
2023-02-23T17:04:49.734Z,64.9
2023-02-23T17:06:06.660Z,65
2023-02-23T17:07:24.190Z,65.2
2023-02-23T17:08:43.538Z,65.5
2023-02-23T17:09:57.707Z,65.9
2023-02-23T17:11:14.712Z,66.3